sensor_id;sensor_type;location;lat;lon;timestamp;P1;durP1;ratioP1;P2;durP2;ratioP2
78818;SDS011;68166;55.090;37.460;2023-07-29T00:01:03;2.47;;;1.70;;
78818;SDS011;68166;55.090;37.460;2023-07-29T00:06:05;3.35;;;1.58;;
78818;SDS011;68166;55.090;37.460;2023-07-29T00:11:07;2.28;;;1.30;;
78818;SDS011;68166;55.090;37.460;2023-07-29T00:16:09;3.03;;;1.83;;
78818;SDS011;68166;55.090;37.460;2023-07-29T00:21:13;2.72;;;1.80;;
78818;SDS011;68166;55.090;37.460;2023-07-29T00:26:15;3.85;;;2.03;;
78818;SDS011;68166;55.090;37.460;2023-07-29T00:31:17;3.55;;;2.03;;
78818;SDS011;68166;55.090;37.460;2023-07-29T00:36:20;2.90;;;2.13;;
78818;SDS011;68166;55.090;37.460;2023-07-29T00:41:21;5.05;;;2.08;;
78818;SDS011;68166;55.090;37.460;2023-07-29T00:46:24;7.88;;;2.30;;
78818;SDS011;68166;55.090;37.460;2023-07-29T00:51:26;3.15;;;1.98;;
78818;SDS011;68166;55.090;37.460;2023-07-29T00:56:28;3.88;;;2.22;;
78818;SDS011;68166;55.090;37.460;2023-07-29T01:01:30;4.80;;;2.25;;
78818;SDS011;68166;55.090;37.460;2023-07-29T01:17:39;4.38;;;2.08;;
78818;SDS011;68166;55.090;37.460;2023-07-29T01:22:44;6.25;;;2.72;;
78818;SDS011;68166;55.090;37.460;2023-07-29T01:27:47;11.95;;;2.58;;
78818;SDS011;68166;55.090;37.460;2023-07-29T01:38:16;4.85;;;2.88;;
78818;SDS011;68166;55.090;37.460;2023-07-29T01:43:22;5.35;;;2.88;;
78818;SDS011;68166;55.090;37.460;2023-07-29T01:48:26;3.65;;;2.22;;
78818;SDS011;68166;55.090;37.460;2023-07-29T01:53:31;3.75;;;2.10;;
78818;SDS011;68166;55.090;37.460;2023-07-29T01:58:34;5.40;;;2.55;;
78818;SDS011;68166;55.090;37.460;2023-07-29T02:03:36;6.45;;;2.72;;
78818;SDS011;68166;55.090;37.460;2023-07-29T02:08:38;3.75;;;1.75;;
78818;SDS011;68166;55.090;37.460;2023-07-29T02:13:41;5.45;;;2.97;;
78818;SDS011;68166;55.090;37.460;2023-07-29T02:18:44;5.82;;;2.22;;
78818;SDS011;68166;55.090;37.460;2023-07-29T02:23:46;4.47;;;2.25;;
78818;SDS011;68166;55.090;37.460;2023-07-29T02:28:48;5.70;;;2.97;;
78818;SDS011;68166;55.090;37.460;2023-07-29T02:33:51;4.00;;;2.33;;
78818;SDS011;68166;55.090;37.460;2023-07-29T02:38:53;5.63;;;2.33;;
78818;SDS011;68166;55.090;37.460;2023-07-29T02:43:55;3.97;;;1.50;;
78818;SDS011;68166;55.090;37.460;2023-07-29T02:48:57;3.90;;;2.15;;
78818;SDS011;68166;55.090;37.460;2023-07-29T02:53:58;4.50;;;2.28;;
78818;SDS011;68166;55.090;37.460;2023-07-29T02:59:00;4.53;;;1.90;;
78818;SDS011;68166;55.090;37.460;2023-07-29T03:04:02;3.47;;;2.58;;
78818;SDS011;68166;55.090;37.460;2023-07-29T03:09:04;3.70;;;1.90;;
78818;SDS011;68166;55.090;37.460;2023-07-29T03:14:06;3.50;;;2.05;;
78818;SDS011;68166;55.090;37.460;2023-07-29T03:19:08;4.18;;;1.85;;
78818;SDS011;68166;55.090;37.460;2023-07-29T03:24:11;3.75;;;2.03;;
78818;SDS011;68166;55.090;37.460;2023-07-29T03:29:13;2.92;;;1.45;;
78818;SDS011;68166;55.090;37.460;2023-07-29T03:34:18;3.08;;;1.73;;
78818;SDS011;68166;55.090;37.460;2023-07-29T03:39:20;3.85;;;1.60;;
78818;SDS011;68166;55.090;37.460;2023-07-29T03:44:22;2.22;;;1.25;;
78818;SDS011;68166;55.090;37.460;2023-07-29T03:49:24;3.33;;;1.40;;
78818;SDS011;68166;55.090;37.460;2023-07-29T03:54:26;3.30;;;1.67;;
78818;SDS011;68166;55.090;37.460;2023-07-29T03:59:28;4.30;;;1.98;;
78818;SDS011;68166;55.090;37.460;2023-07-29T04:04:30;2.10;;;1.27;;
78818;SDS011;68166;55.090;37.460;2023-07-29T04:09:32;3.30;;;1.42;;
78818;SDS011;68166;55.090;37.460;2023-07-29T04:14:34;3.05;;;1.70;;
78818;SDS011;68166;55.090;37.460;2023-07-29T04:19:36;3.00;;;1.42;;
78818;SDS011;68166;55.090;37.460;2023-07-29T04:24:38;4.13;;;1.55;;
78818;SDS011;68166;55.090;37.460;2023-07-29T04:29:40;4.00;;;1.92;;
78818;SDS011;68166;55.090;37.460;2023-07-29T04:34:42;5.22;;;1.33;;
78818;SDS011;68166;55.090;37.460;2023-07-29T04:39:44;3.47;;;1.70;;
78818;SDS011;68166;55.090;37.460;2023-07-29T04:44:47;3.80;;;2.58;;
78818;SDS011;68166;55.090;37.460;2023-07-29T04:49:49;2.92;;;1.27;;
78818;SDS011;68166;55.090;37.460;2023-07-29T04:54:51;4.40;;;2.63;;
78818;SDS011;68166;55.090;37.460;2023-07-29T04:59:53;3.40;;;1.77;;
78818;SDS011;68166;55.090;37.460;2023-07-29T05:04:55;2.38;;;1.50;;
78818;SDS011;68166;55.090;37.460;2023-07-29T05:09:57;2.97;;;1.92;;
78818;SDS011;68166;55.090;37.460;2023-07-29T05:14:59;4.18;;;2.13;;
78818;SDS011;68166;55.090;37.460;2023-07-29T05:20:01;3.40;;;1.92;;
78818;SDS011;68166;55.090;37.460;2023-07-29T05:25:03;3.63;;;2.05;;
78818;SDS011;68166;55.090;37.460;2023-07-29T05:30:06;3.40;;;2.08;;
78818;SDS011;68166;55.090;37.460;2023-07-29T05:35:09;4.22;;;2.20;;
78818;SDS011;68166;55.090;37.460;2023-07-29T05:40:11;3.00;;;1.98;;
78818;SDS011;68166;55.090;37.460;2023-07-29T05:45:13;3.15;;;1.77;;
78818;SDS011;68166;55.090;37.460;2023-07-29T05:50:15;3.70;;;2.00;;
78818;SDS011;68166;55.090;37.460;2023-07-29T05:55:17;3.10;;;1.83;;
78818;SDS011;68166;55.090;37.460;2023-07-29T06:00:19;3.75;;;2.10;;
78818;SDS011;68166;55.090;37.460;2023-07-29T06:05:21;4.55;;;2.20;;
78818;SDS011;68166;55.090;37.460;2023-07-29T06:10:23;4.03;;;1.90;;
78818;SDS011;68166;55.090;37.460;2023-07-29T06:15:25;2.97;;;1.73;;
78818;SDS011;68166;55.090;37.460;2023-07-29T06:20:27;3.00;;;1.88;;
78818;SDS011;68166;55.090;37.460;2023-07-29T06:25:29;4.13;;;2.67;;
78818;SDS011;68166;55.090;37.460;2023-07-29T06:30:31;6.55;;;3.42;;
78818;SDS011;68166;55.090;37.460;2023-07-29T06:35:33;6.15;;;2.92;;
78818;SDS011;68166;55.090;37.460;2023-07-29T06:40:35;4.55;;;2.53;;
78818;SDS011;68166;55.090;37.460;2023-07-29T06:45:37;4.05;;;2.15;;
78818;SDS011;68166;55.090;37.460;2023-07-29T06:50:39;2.88;;;1.98;;
78818;SDS011;68166;55.090;37.460;2023-07-29T06:55:41;4.50;;;2.40;;
78818;SDS011;68166;55.090;37.460;2023-07-29T07:00:43;4.03;;;2.38;;
78818;SDS011;68166;55.090;37.460;2023-07-29T07:05:45;6.22;;;2.97;;
78818;SDS011;68166;55.090;37.460;2023-07-29T07:10:47;6.30;;;2.20;;
78818;SDS011;68166;55.090;37.460;2023-07-29T07:15:49;4.22;;;1.55;;
78818;SDS011;68166;55.090;37.460;2023-07-29T07:20:51;3.00;;;2.00;;
78818;SDS011;68166;55.090;37.460;2023-07-29T07:25:53;4.90;;;2.08;;
78818;SDS011;68166;55.090;37.460;2023-07-29T07:30:55;3.88;;;1.40;;
78818;SDS011;68166;55.090;37.460;2023-07-29T07:35:57;2.88;;;1.60;;
78818;SDS011;68166;55.090;37.460;2023-07-29T07:40:59;4.32;;;1.60;;
78818;SDS011;68166;55.090;37.460;2023-07-29T07:46:01;2.63;;;1.40;;
78818;SDS011;68166;55.090;37.460;2023-07-29T07:51:13;2.75;;;1.00;;
78818;SDS011;68166;55.090;37.460;2023-07-29T07:56:15;2.40;;;1.30;;
78818;SDS011;68166;55.090;37.460;2023-07-29T08:01:17;3.88;;;1.35;;
78818;SDS011;68166;55.090;37.460;2023-07-29T08:06:19;4.25;;;1.38;;
78818;SDS011;68166;55.090;37.460;2023-07-29T08:11:21;3.03;;;1.52;;
78818;SDS011;68166;55.090;37.460;2023-07-29T08:16:23;2.25;;;1.05;;
78818;SDS011;68166;55.090;37.460;2023-07-29T08:21:26;3.35;;;1.50;;
78818;SDS011;68166;55.090;37.460;2023-07-29T08:26:28;3.97;;;1.80;;
78818;SDS011;68166;55.090;37.460;2023-07-29T08:31:30;3.67;;;2.40;;
78818;SDS011;68166;55.090;37.460;2023-07-29T08:36:34;3.38;;;1.55;;
78818;SDS011;68166;55.090;37.460;2023-07-29T08:41:57;3.85;;;2.55;;
78818;SDS011;68166;55.090;37.460;2023-07-29T08:47:01;4.63;;;1.92;;
78818;SDS011;68166;55.090;37.460;2023-07-29T08:52:03;4.65;;;1.83;;
78818;SDS011;68166;55.090;37.460;2023-07-29T08:57:06;3.40;;;1.73;;
78818;SDS011;68166;55.090;37.460;2023-07-29T09:02:10;2.40;;;1.33;;
78818;SDS011;68166;55.090;37.460;2023-07-29T09:07:12;5.15;;;1.60;;
78818;SDS011;68166;55.090;37.460;2023-07-29T09:12:15;3.42;;;1.88;;
78818;SDS011;68166;55.090;37.460;2023-07-29T09:17:17;2.58;;;1.48;;
78818;SDS011;68166;55.090;37.460;2023-07-29T09:22:21;2.00;;;1.50;;
78818;SDS011;68166;55.090;37.460;2023-07-29T09:27:24;2.70;;;1.30;;
78818;SDS011;68166;55.090;37.460;2023-07-29T09:32:27;3.15;;;1.80;;
78818;SDS011;68166;55.090;37.460;2023-07-29T09:37:29;4.20;;;1.63;;
78818;SDS011;68166;55.090;37.460;2023-07-29T09:42:32;3.75;;;2.13;;
78818;SDS011;68166;55.090;37.460;2023-07-29T09:47:34;2.97;;;1.60;;
78818;SDS011;68166;55.090;37.460;2023-07-29T09:52:36;3.30;;;2.03;;
78818;SDS011;68166;55.090;37.460;2023-07-29T09:57:41;3.47;;;1.85;;
78818;SDS011;68166;55.090;37.460;2023-07-29T10:02:43;3.15;;;1.50;;
78818;SDS011;68166;55.090;37.460;2023-07-29T10:07:45;2.70;;;1.38;;
78818;SDS011;68166;55.090;37.460;2023-07-29T10:12:47;2.85;;;1.73;;
78818;SDS011;68166;55.090;37.460;2023-07-29T10:17:50;3.40;;;1.77;;
78818;SDS011;68166;55.090;37.460;2023-07-29T10:22:53;4.18;;;2.05;;
78818;SDS011;68166;55.090;37.460;2023-07-29T10:28:16;4.32;;;1.85;;
78818;SDS011;68166;55.090;37.460;2023-07-29T10:33:19;4.43;;;2.10;;
78818;SDS011;68166;55.090;37.460;2023-07-29T10:38:22;3.63;;;1.95;;
78818;SDS011;68166;55.090;37.460;2023-07-29T10:43:26;3.80;;;2.33;;
78818;SDS011;68166;55.090;37.460;2023-07-29T10:53:34;3.10;;;1.55;;
78818;SDS011;68166;55.090;37.460;2023-07-29T10:58:38;3.85;;;1.90;;
78818;SDS011;68166;55.090;37.460;2023-07-29T11:03:41;2.75;;;1.88;;
78818;SDS011;68166;55.090;37.460;2023-07-29T11:09:39;4.45;;;2.17;;
78818;SDS011;68166;55.090;37.460;2023-07-29T11:14:43;5.32;;;2.05;;
78818;SDS011;68166;55.090;37.460;2023-07-29T11:19:45;3.40;;;2.40;;
78818;SDS011;68166;55.090;37.460;2023-07-29T11:24:50;3.75;;;2.47;;
78818;SDS011;68166;55.090;37.460;2023-07-29T11:30:02;3.15;;;2.00;;
78818;SDS011;68166;55.090;37.460;2023-07-29T11:35:07;3.05;;;1.95;;
78818;SDS011;68166;55.090;37.460;2023-07-29T11:40:18;4.57;;;2.42;;
78818;SDS011;68166;55.090;37.460;2023-07-29T11:45:21;3.00;;;2.13;;
78818;SDS011;68166;55.090;37.460;2023-07-29T11:50:26;3.20;;;1.88;;
78818;SDS011;68166;55.090;37.460;2023-07-29T11:55:28;2.70;;;1.58;;
78818;SDS011;68166;55.090;37.460;2023-07-29T12:00:31;3.80;;;2.10;;
78818;SDS011;68166;55.090;37.460;2023-07-29T12:05:32;3.97;;;2.30;;
78818;SDS011;68166;55.090;37.460;2023-07-29T12:10:35;5.60;;;2.17;;
78818;SDS011;68166;55.090;37.460;2023-07-29T12:15:37;3.22;;;1.90;;
78818;SDS011;68166;55.090;37.460;2023-07-29T12:20:41;3.35;;;2.13;;
78818;SDS011;68166;55.090;37.460;2023-07-29T12:25:43;4.22;;;2.40;;
78818;SDS011;68166;55.090;37.460;2023-07-29T12:30:45;6.53;;;3.50;;
78818;SDS011;68166;55.090;37.460;2023-07-29T12:35:47;4.63;;;2.47;;
78818;SDS011;68166;55.090;37.460;2023-07-29T12:40:51;5.13;;;2.60;;
78818;SDS011;68166;55.090;37.460;2023-07-29T12:45:53;4.13;;;2.00;;
78818;SDS011;68166;55.090;37.460;2023-07-29T12:50:55;5.85;;;2.90;;
78818;SDS011;68166;55.090;37.460;2023-07-29T12:55:57;7.32;;;1.92;;
78818;SDS011;68166;55.090;37.460;2023-07-29T13:00:59;6.07;;;2.40;;
78818;SDS011;68166;55.090;37.460;2023-07-29T13:06:01;5.10;;;2.70;;
78818;SDS011;68166;55.090;37.460;2023-07-29T13:11:04;6.50;;;3.35;;
78818;SDS011;68166;55.090;37.460;2023-07-29T13:16:06;5.03;;;1.88;;
78818;SDS011;68166;55.090;37.460;2023-07-29T13:21:08;4.43;;;2.58;;
78818;SDS011;68166;55.090;37.460;2023-07-29T13:26:10;6.13;;;2.33;;
78818;SDS011;68166;55.090;37.460;2023-07-29T13:31:12;4.57;;;2.85;;
78818;SDS011;68166;55.090;37.460;2023-07-29T13:36:14;6.18;;;2.40;;
78818;SDS011;68166;55.090;37.460;2023-07-29T13:41:16;4.57;;;2.20;;
78818;SDS011;68166;55.090;37.460;2023-07-29T13:46:18;3.70;;;2.13;;
78818;SDS011;68166;55.090;37.460;2023-07-29T13:51:22;3.60;;;1.88;;
78818;SDS011;68166;55.090;37.460;2023-07-29T13:56:24;7.05;;;2.80;;
78818;SDS011;68166;55.090;37.460;2023-07-29T14:01:26;3.83;;;2.60;;
78818;SDS011;68166;55.090;37.460;2023-07-29T14:06:28;6.18;;;3.22;;
78818;SDS011;68166;55.090;37.460;2023-07-29T14:11:31;5.03;;;3.00;;
78818;SDS011;68166;55.090;37.460;2023-07-29T14:16:33;4.20;;;2.25;;
78818;SDS011;68166;55.090;37.460;2023-07-29T14:21:35;5.68;;;2.85;;
78818;SDS011;68166;55.090;37.460;2023-07-29T14:26:36;4.25;;;2.80;;
78818;SDS011;68166;55.090;37.460;2023-07-29T14:31:38;6.43;;;2.88;;
78818;SDS011;68166;55.090;37.460;2023-07-29T14:36:40;7.40;;;2.95;;
78818;SDS011;68166;55.090;37.460;2023-07-29T14:41:42;3.92;;;2.35;;
78818;SDS011;68166;55.090;37.460;2023-07-29T14:46:44;4.85;;;3.05;;
78818;SDS011;68166;55.090;37.460;2023-07-29T14:51:46;4.40;;;2.83;;
78818;SDS011;68166;55.090;37.460;2023-07-29T14:56:48;5.18;;;2.75;;
78818;SDS011;68166;55.090;37.460;2023-07-29T15:01:50;5.55;;;2.78;;
78818;SDS011;68166;55.090;37.460;2023-07-29T15:06:52;7.43;;;3.85;;
78818;SDS011;68166;55.090;37.460;2023-07-29T15:11:54;3.75;;;2.50;;
78818;SDS011;68166;55.090;37.460;2023-07-29T15:16:56;4.72;;;2.50;;
78818;SDS011;68166;55.090;37.460;2023-07-29T15:21:58;3.50;;;2.60;;
78818;SDS011;68166;55.090;37.460;2023-07-29T15:26:59;5.30;;;2.65;;
78818;SDS011;68166;55.090;37.460;2023-07-29T15:32:01;4.88;;;2.60;;
78818;SDS011;68166;55.090;37.460;2023-07-29T15:37:04;5.10;;;2.50;;
78818;SDS011;68166;55.090;37.460;2023-07-29T15:42:06;5.90;;;2.63;;
78818;SDS011;68166;55.090;37.460;2023-07-29T15:47:08;4.55;;;2.17;;
78818;SDS011;68166;55.090;37.460;2023-07-29T15:52:10;4.60;;;3.00;;
78818;SDS011;68166;55.090;37.460;2023-07-29T15:57:14;7.38;;;3.42;;
78818;SDS011;68166;55.090;37.460;2023-07-29T16:02:16;15.45;;;11.73;;
78818;SDS011;68166;55.090;37.460;2023-07-29T16:07:18;4.90;;;2.78;;
78818;SDS011;68166;55.090;37.460;2023-07-29T16:12:20;4.22;;;2.47;;
78818;SDS011;68166;55.090;37.460;2023-07-29T16:17:22;3.63;;;3.00;;
78818;SDS011;68166;55.090;37.460;2023-07-29T16:22:25;4.22;;;2.47;;
78818;SDS011;68166;55.090;37.460;2023-07-29T16:27:27;4.70;;;2.38;;
78818;SDS011;68166;55.090;37.460;2023-07-29T16:32:32;5.50;;;2.70;;
78818;SDS011;68166;55.090;37.460;2023-07-29T16:37:34;4.22;;;2.40;;
78818;SDS011;68166;55.090;37.460;2023-07-29T16:42:36;5.40;;;3.17;;
78818;SDS011;68166;55.090;37.460;2023-07-29T16:47:38;6.00;;;2.80;;
78818;SDS011;68166;55.090;37.460;2023-07-29T16:52:40;6.70;;;2.78;;
78818;SDS011;68166;55.090;37.460;2023-07-29T16:57:42;5.20;;;2.63;;
78818;SDS011;68166;55.090;37.460;2023-07-29T17:02:46;5.68;;;2.58;;
78818;SDS011;68166;55.090;37.460;2023-07-29T17:07:48;3.95;;;2.40;;
78818;SDS011;68166;55.090;37.460;2023-07-29T17:12:50;5.03;;;2.60;;
78818;SDS011;68166;55.090;37.460;2023-07-29T17:17:52;4.93;;;2.67;;
78818;SDS011;68166;55.090;37.460;2023-07-29T17:22:57;5.82;;;2.85;;
78818;SDS011;68166;55.090;37.460;2023-07-29T17:27:59;5.95;;;2.50;;
78818;SDS011;68166;55.090;37.460;2023-07-29T17:33:01;8.27;;;4.45;;
78818;SDS011;68166;55.090;37.460;2023-07-29T17:38:04;7.95;;;5.25;;
78818;SDS011;68166;55.090;37.460;2023-07-29T17:43:09;10.30;;;4.05;;
78818;SDS011;68166;55.090;37.460;2023-07-29T17:48:11;5.82;;;3.95;;
78818;SDS011;68166;55.090;37.460;2023-07-29T17:53:13;6.05;;;3.65;;
78818;SDS011;68166;55.090;37.460;2023-07-29T17:58:15;7.55;;;3.78;;
78818;SDS011;68166;55.090;37.460;2023-07-29T18:03:18;8.38;;;5.05;;
78818;SDS011;68166;55.090;37.460;2023-07-29T18:08:20;9.50;;;3.35;;
78818;SDS011;68166;55.090;37.460;2023-07-29T18:13:22;4.72;;;2.70;;
78818;SDS011;68166;55.090;37.460;2023-07-29T18:18:25;7.75;;;3.58;;
78818;SDS011;68166;55.090;37.460;2023-07-29T18:23:27;6.25;;;3.00;;
78818;SDS011;68166;55.090;37.460;2023-07-29T18:28:29;4.38;;;2.55;;
78818;SDS011;68166;55.090;37.460;2023-07-29T18:33:31;6.22;;;3.10;;
78818;SDS011;68166;55.090;37.460;2023-07-29T18:38:33;5.38;;;3.05;;
78818;SDS011;68166;55.090;37.460;2023-07-29T18:43:35;8.77;;;3.45;;
78818;SDS011;68166;55.090;37.460;2023-07-29T18:48:37;7.25;;;4.05;;
78818;SDS011;68166;55.090;37.460;2023-07-29T18:53:39;5.13;;;2.95;;
78818;SDS011;68166;55.090;37.460;2023-07-29T18:58:41;4.68;;;3.38;;
78818;SDS011;68166;55.090;37.460;2023-07-29T19:03:43;3.28;;;2.22;;
78818;SDS011;68166;55.090;37.460;2023-07-29T19:08:45;3.83;;;2.13;;
78818;SDS011;68166;55.090;37.460;2023-07-29T19:13:50;4.07;;;2.83;;
78818;SDS011;68166;55.090;37.460;2023-07-29T19:18:52;8.55;;;3.42;;
78818;SDS011;68166;55.090;37.460;2023-07-29T19:23:54;4.93;;;2.92;;
78818;SDS011;68166;55.090;37.460;2023-07-29T19:28:56;3.50;;;2.38;;
78818;SDS011;68166;55.090;37.460;2023-07-29T19:33:58;6.72;;;3.17;;
78818;SDS011;68166;55.090;37.460;2023-07-29T19:39:01;5.40;;;3.22;;
78818;SDS011;68166;55.090;37.460;2023-07-29T19:44:05;5.47;;;4.13;;
78818;SDS011;68166;55.090;37.460;2023-07-29T19:49:07;6.72;;;4.03;;
78818;SDS011;68166;55.090;37.460;2023-07-29T19:54:09;8.48;;;3.60;;
78818;SDS011;68166;55.090;37.460;2023-07-29T19:59:11;6.72;;;3.88;;
78818;SDS011;68166;55.090;37.460;2023-07-29T20:04:13;7.88;;;4.03;;
78818;SDS011;68166;55.090;37.460;2023-07-29T20:09:15;6.47;;;4.15;;
78818;SDS011;68166;55.090;37.460;2023-07-29T20:14:17;5.07;;;3.50;;
78818;SDS011;68166;55.090;37.460;2023-07-29T20:19:19;4.97;;;3.33;;
78818;SDS011;68166;55.090;37.460;2023-07-29T20:24:21;5.88;;;3.58;;
78818;SDS011;68166;55.090;37.460;2023-07-29T20:29:25;4.80;;;3.85;;
78818;SDS011;68166;55.090;37.460;2023-07-29T20:34:27;10.60;;;5.70;;
78818;SDS011;68166;55.090;37.460;2023-07-29T20:39:30;7.63;;;4.50;;
78818;SDS011;68166;55.090;37.460;2023-07-29T20:44:32;6.75;;;3.67;;
78818;SDS011;68166;55.090;37.460;2023-07-29T20:49:34;5.85;;;3.10;;
78818;SDS011;68166;55.090;37.460;2023-07-29T20:54:37;4.68;;;2.78;;
78818;SDS011;68166;55.090;37.460;2023-07-29T20:59:41;7.50;;;3.40;;
78818;SDS011;68166;55.090;37.460;2023-07-29T21:04:43;4.88;;;3.90;;
78818;SDS011;68166;55.090;37.460;2023-07-29T21:09:45;7.70;;;3.40;;
78818;SDS011;68166;55.090;37.460;2023-07-29T21:14:46;5.07;;;3.05;;
78818;SDS011;68166;55.090;37.460;2023-07-29T21:19:49;5.18;;;3.03;;
78818;SDS011;68166;55.090;37.460;2023-07-29T21:24:51;5.38;;;4.07;;
78818;SDS011;68166;55.090;37.460;2023-07-29T21:29:53;7.13;;;4.13;;
78818;SDS011;68166;55.090;37.460;2023-07-29T21:34:55;10.30;;;3.20;;
78818;SDS011;68166;55.090;37.460;2023-07-29T21:39:57;7.10;;;4.65;;
78818;SDS011;68166;55.090;37.460;2023-07-29T21:44:59;9.73;;;5.15;;
78818;SDS011;68166;55.090;37.460;2023-07-29T21:50:01;11.23;;;4.38;;
78818;SDS011;68166;55.090;37.460;2023-07-29T21:55:07;10.98;;;5.85;;
78818;SDS011;68166;55.090;37.460;2023-07-29T22:00:09;8.30;;;4.65;;
78818;SDS011;68166;55.090;37.460;2023-07-29T22:05:11;8.70;;;4.78;;
78818;SDS011;68166;55.090;37.460;2023-07-29T22:10:13;7.90;;;4.45;;
78818;SDS011;68166;55.090;37.460;2023-07-29T22:15:15;7.28;;;4.13;;
78818;SDS011;68166;55.090;37.460;2023-07-29T22:20:17;7.82;;;4.82;;
78818;SDS011;68166;55.090;37.460;2023-07-29T22:25:19;6.78;;;4.20;;
78818;SDS011;68166;55.090;37.460;2023-07-29T22:30:21;7.30;;;4.65;;
78818;SDS011;68166;55.090;37.460;2023-07-29T22:35:23;6.43;;;4.18;;
78818;SDS011;68166;55.090;37.460;2023-07-29T22:40:26;4.63;;;3.22;;
78818;SDS011;68166;55.090;37.460;2023-07-29T22:45:28;4.45;;;3.65;;
78818;SDS011;68166;55.090;37.460;2023-07-29T22:50:30;7.55;;;3.83;;
78818;SDS011;68166;55.090;37.460;2023-07-29T22:55:32;6.78;;;3.30;;
78818;SDS011;68166;55.090;37.460;2023-07-29T23:00:34;6.13;;;4.13;;
78818;SDS011;68166;55.090;37.460;2023-07-29T23:05:36;7.13;;;4.05;;
78818;SDS011;68166;55.090;37.460;2023-07-29T23:10:38;8.82;;;3.78;;
78818;SDS011;68166;55.090;37.460;2023-07-29T23:15:40;6.50;;;3.97;;
78818;SDS011;68166;55.090;37.460;2023-07-29T23:20:45;11.02;;;4.18;;
78818;SDS011;68166;55.090;37.460;2023-07-29T23:25:47;5.30;;;3.50;;
78818;SDS011;68166;55.090;37.460;2023-07-29T23:30:53;6.78;;;3.80;;
78818;SDS011;68166;55.090;37.460;2023-07-29T23:36:00;5.10;;;2.35;;
78818;SDS011;68166;55.090;37.460;2023-07-29T23:41:02;8.52;;;4.03;;
78818;SDS011;68166;55.090;37.460;2023-07-29T23:46:04;7.78;;;3.35;;
78818;SDS011;68166;55.090;37.460;2023-07-29T23:51:06;7.25;;;3.65;;
78818;SDS011;68166;55.090;37.460;2023-07-29T23:56:08;5.60;;;3.35;;
